Weather History for KCWC - July, 2013

Change the Weather History Date:

Saturday, July 13, 2013

  Actual Average (KSPS) Record (KSPS)
Temperature  
Mean Temperature 90 °F 84 °F  
Max Temperature 104 °F 97 °F 109 °F (1969)
Min Temperature 78 °F 72 °F 61 °F (1975)
Cooling Degree Days 26 19  
Month to date cooling degree days 241  
Year to date cooling degree days 996  
Growing Degree Days 40 (Base 50)    
Moisture  
Dew Point 60 °F    
Average Humidity 39    
Maximum Humidity 67    
Minimum Humidity 18    
Precipitation  
Precipitation 0.00 in 0.05 in 2.90 in (1963)
Month to date precipitation 0.74  
Year to date precipitation 16.38  
Sea Level Pressure  
Sea Level Pressure 29.94 in    
Wind  
Wind Speed 7 mph (ESE)    
Max Wind Speed 13 mph    
Max Gust Speed 17 mph    
Visibility 10 miles    
Events      
T = Trace of Precipitation, MM = Missing Value Source: NWS Daily Summary

Daily Weather History Graph

Daily Weather History Graph

Search for Another Location

Airport or City:

Trip Planner

Search our weather history database for the weather conditions in past years. The results will help you decide how hot, cold, wet, or windy it might be!

Date:

Astronomy

Jul. 13, 2013 Rise Set
Actual Time 6:33 AM CDT 8:46 PM CDT
Civil Twilight 6:04 AM CDT 9:14 PM CDT
Nautical Twilight 5:29 AM CDT 9:49 PM CDT
Astronomical Twilight 4:51 AM CDT 10:27 PM CDT
Moon 11:33 AM CDT (7/13) 11:46 PM CDT (7/13)
Length of Visible Light 15h 10m
Length of Day
14h 13m
Waxing Crescent, 26% of the Moon is Illuminated
Jul 13
Waxing Crescent
Jul 15
First Quarter
Jul 22
Full
Jul 29
Last Quarter
Aug 6
New

Hourly Weather History & Observations

Time (CDT) Temp. Heat Index Dew Point Humidity Pressure Visibility Wind Dir Wind Speed Gust Speed Precip Events Conditions
12:15 AM 87.3 °F 88.0 °F 62.6 °F 44% 29.95 in 10.0 mi ESE 6.9 mph - N/A   Clear
12:35 AM 87.1 °F 87.8 °F 62.8 °F 44% 29.95 in 10.0 mi SE 9.2 mph - N/A   Clear
12:55 AM 86.9 °F 87.8 °F 63.1 °F 45% 29.95 in 10.0 mi ESE 8.1 mph - N/A   Clear
1:15 AM 86.4 °F 87.6 °F 63.7 °F 47% 29.95 in 10.0 mi SE 8.1 mph - N/A   Clear
1:35 AM 85.8 °F 87.1 °F 64.0 °F 48% 29.95 in 10.0 mi ESE 6.9 mph - N/A   Clear
1:55 AM 85.1 °F 86.6 °F 64.4 °F 50% 29.95 in 10.0 mi ESE 6.9 mph - N/A   Clear
2:15 AM 84.2 °F 85.8 °F 64.6 °F 52% 29.96 in 10.0 mi ESE 5.8 mph - N/A   Clear
2:35 AM 83.3 °F 85.1 °F 64.9 °F 54% 29.96 in 10.0 mi ESE 5.8 mph - N/A   Clear
2:55 AM 82.8 °F 84.3 °F 64.8 °F 54% 29.96 in 10.0 mi ESE 4.6 mph - N/A   Clear
3:15 AM 82.4 °F 84.1 °F 64.6 °F 55% 29.96 in 10.0 mi ESE 4.6 mph - N/A   Clear
3:35 AM 82.0 °F 83.8 °F 64.8 °F 56% 29.96 in 10.0 mi ESE 5.8 mph - N/A   Clear
3:55 AM 81.5 °F 83.3 °F 64.8 °F 57% 29.96 in 10.0 mi ESE 5.8 mph - N/A   Clear
4:15 AM 81.5 °F 83.3 °F 64.9 °F 57% 29.96 in 10.0 mi ESE 5.8 mph - N/A   Clear
4:35 AM 80.6 °F 82.4 °F 65.3 °F 59% 29.96 in 10.0 mi ESE 5.8 mph - N/A   Clear
4:55 AM 79.7 °F - 65.7 °F 62% 29.96 in 10.0 mi SE 4.6 mph - N/A   Clear
5:15 AM 79.2 °F - 65.8 °F 64% 29.97 in 10.0 mi ESE 4.6 mph - N/A   Clear
5:35 AM 78.8 °F - 66.2 °F 65% 29.97 in 10.0 mi ESE 4.6 mph - N/A   Clear
5:55 AM 78.6 °F - 66.2 °F 66% 29.97 in 10.0 mi ESE 5.8 mph - N/A   Clear
6:15 AM 78.8 °F - 66.0 °F 65% 29.98 in 10.0 mi ESE 5.8 mph - N/A   Clear
6:35 AM 78.4 °F - 66.2 °F 66% 29.99 in 10.0 mi ESE 5.8 mph - N/A   Clear
6:55 AM 78.1 °F - 66.2 °F 67% 29.99 in 10.0 mi ESE 5.8 mph - N/A   Clear
7:15 AM 78.8 °F - 66.6 °F 66% 29.99 in 10.0 mi East 5.8 mph - N/A   Clear
7:35 AM 79.7 °F - 67.1 °F 65% 30.00 in 10.0 mi East 4.6 mph - N/A   Clear
7:55 AM 80.6 °F 83.1 °F 67.3 °F 64% 30.00 in 10.0 mi ESE 6.9 mph - N/A   Clear
8:15 AM 81.5 °F 84.1 °F 67.5 °F 62% 30.00 in 10.0 mi ESE 6.9 mph - N/A   Clear
8:35 AM 83.3 °F 86.2 °F 67.5 °F 59% 30.00 in 10.0 mi ESE 12.7 mph - N/A   Clear
8:55 AM 84.7 °F 87.6 °F 67.6 °F 56% 30.00 in 10.0 mi ESE 10.4 mph - N/A   Clear
9:15 AM 86.0 °F 88.8 °F 67.3 °F 53% 30.01 in 10.0 mi SSE 10.4 mph - N/A   Clear
9:35 AM 87.1 °F 89.9 °F 66.7 °F 51% 30.00 in 10.0 mi SE 12.7 mph - N/A   Clear
9:55 AM 88.7 °F 91.1 °F 66.4 °F 47% 30.00 in 10.0 mi SE 9.2 mph - N/A   Clear
10:15 AM 90.3 °F 92.2 °F 65.3 °F 43% 30.00 in 10.0 mi SSE 9.2 mph - N/A   Clear
10:35 AM 91.6 °F 93.1 °F 63.9 °F 40% 29.99 in 10.0 mi SSE 8.1 mph - N/A   Clear
10:55 AM 93.0 °F 93.0 °F 60.4 °F 34% 29.99 in 10.0 mi South 3.5 mph - N/A   Clear
11:15 AM 93.7 °F 93.3 °F 59.4 °F 32% 29.99 in 10.0 mi South 5.8 mph - N/A   Clear
11:35 AM 94.6 °F 93.9 °F 58.6 °F 30% 29.98 in 10.0 mi SSE 4.6 mph - N/A   Clear
11:55 AM 97.0 °F 95.7 °F 56.7 °F 26% 29.98 in 10.0 mi Calm Calm - N/A   Clear
12:15 PM 97.2 °F 96.0 °F 57.0 °F 26% 29.98 in 10.0 mi ESE 3.5 mph - N/A   Clear
12:35 PM 98.1 °F 96.8 °F 56.1 °F 25% 29.97 in 10.0 mi South 4.6 mph - N/A   Clear
12:55 PM 97.9 °F 96.2 °F 54.9 °F 24% 29.97 in 10.0 mi Calm Calm - N/A   Clear
1:15 PM 99.3 °F 97.8 °F 55.4 °F 23% 29.96 in 10.0 mi Calm Calm - N/A   Clear
1:35 PM 100.0 °F 98.3 °F 55.2 °F 22% 29.95 in 10.0 mi South 3.5 mph - N/A   Clear
1:55 PM 100.2 °F 98.6 °F 54.9 °F 22% 29.95 in 10.0 mi Calm Calm - N/A   Clear
2:15 PM 100.9 °F 99.1 °F 54.9 °F 21% 29.94 in 10.0 mi East 10.4 mph - N/A   Clear
2:35 PM 102.7 °F 101.1 °F 54.5 °F 20% 29.93 in 10.0 mi East 8.1 mph - N/A   Clear
2:55 PM 101.3 °F 99.2 °F 53.6 °F 20% 29.92 in 10.0 mi Calm Calm - N/A   Clear
3:15 PM 101.3 °F 99.2 °F 53.8 °F 20% 29.92 in 10.0 mi ESE 4.6 mph - N/A   Clear
3:35 PM 102.4 °F - 52.7 °F 19% 29.91 in 10.0 mi South 5.8 mph - N/A   Clear
3:55 PM 102.6 °F 100.9 °F 54.1 °F 20% 29.90 in 10.0 mi NNE 5.8 mph - N/A   Clear
4:15 PM 103.1 °F 101.1 °F 53.4 °F 19% 29.90 in 10.0 mi South 4.6 mph - N/A   Clear
4:35 PM 102.4 °F 100.2 °F 53.4 °F 19% 29.89 in 10.0 mi Calm Calm - N/A   Clear
4:55 PM 103.6 °F - 52.0 °F 18% 29.89 in 10.0 mi SE 5.8 mph - N/A   Scattered Clouds
5:15 PM 102.7 °F - 52.5 °F 19% 29.88 in 10.0 mi ENE 3.5 mph - N/A   Scattered Clouds
5:35 PM 101.8 °F 100.4 °F 54.5 °F 21% 29.88 in 10.0 mi East 10.4 mph - N/A   Clear
5:55 PM 101.3 °F 99.6 °F 54.1 °F 21% 29.87 in 10.0 mi ESE 10.4 mph - N/A   Clear
6:15 PM 100.6 °F 99.1 °F 55.6 °F 22% 29.87 in 10.0 mi ESE 9.2 mph - N/A   Clear
6:35 PM 101.3 °F 100.1 °F 56.3 °F 22% 29.87 in 10.0 mi East 9.2 mph - N/A   Scattered Clouds
6:55 PM 100.8 °F 99.8 °F 56.8 °F 23% 29.87 in 10.0 mi ESE 10.4 mph 16.1 mph N/A   Scattered Clouds
7:15 PM 99.5 °F 98.4 °F 57.2 °F 24% 29.87 in 10.0 mi ESE 9.2 mph 16.1 mph N/A   Clear
7:35 PM 98.8 °F 97.8 °F 57.2 °F 25% 29.87 in 10.0 mi ESE 11.5 mph - N/A   Clear
7:55 PM 97.7 °F 96.3 °F 56.8 °F 25% 29.87 in 10.0 mi ESE 10.4 mph - N/A   Clear
8:15 PM 96.8 °F 95.8 °F 57.4 °F 27% 29.87 in 10.0 mi ESE 9.2 mph - N/A   Clear
8:35 PM 95.9 °F 94.9 °F 58.3 °F 28% 29.88 in 10.0 mi ESE 8.1 mph - N/A   Clear
8:55 PM 94.8 °F 93.8 °F 58.3 °F 29% 29.88 in 10.0 mi ESE 10.4 mph - N/A   Clear
9:15 PM 93.7 °F 93.0 °F 58.5 °F 31% 29.89 in 10.0 mi ESE 10.4 mph - N/A   Clear
9:35 PM 92.8 °F 91.7 °F 58.3 °F 31% 29.89 in 10.0 mi SE 11.5 mph - N/A   Clear
9:55 PM 91.9 °F 90.8 °F 58.1 °F 32% 29.90 in 10.0 mi ESE 9.2 mph - N/A   Clear
10:15 PM 91.2 °F 90.2 °F 58.3 °F 33% 29.91 in 10.0 mi ESE 9.2 mph - N/A   Clear
10:35 PM 90.5 °F 89.5 °F 58.3 °F 34% 29.92 in 10.0 mi ESE 10.4 mph - N/A   Clear
10:55 PM 90.0 °F 89.1 °F 58.6 °F 35% 29.92 in 10.0 mi ESE 9.2 mph - N/A   Clear
11:15 PM 89.4 °F 88.7 °F 59.2 °F 36% 29.93 in 10.0 mi SE 12.7 mph - N/A   Clear
11:35 PM 88.7 °F 88.3 °F 59.9 °F 38% 29.93 in 10.0 mi ESE 11.5 mph 17.3 mph N/A   Clear
11:55 PM 88.0 °F 87.6 °F 60.1 °F 39% 29.93 in 10.0 mi ESE 10.4 mph - N/A   Clear